createdAt,value
2022-08-25T00:00:08.113Z,26.09
2022-08-25T00:01:10.905Z,26.13
2022-08-25T00:02:11.863Z,26.1
2022-08-25T00:03:15.026Z,26.06
2022-08-25T00:04:15.781Z,26.03
2022-08-25T00:05:17.751Z,26.01
2022-08-25T00:06:18.304Z,26
2022-08-25T00:07:21.082Z,26.03
2022-08-25T00:08:23.866Z,26.09
2022-08-25T00:09:26.724Z,26.07
2022-08-25T00:10:29.561Z,26.02
2022-08-25T00:11:32.756Z,25.98
2022-08-25T00:12:35.632Z,25.94
2022-08-25T00:13:38.517Z,25.95
2022-08-25T00:14:41.342Z,25.93
2022-08-25T00:15:44.158Z,25.91
2022-08-25T00:16:44.350Z,25.91
2022-08-25T00:17:47.170Z,25.89
2022-08-25T00:18:49.929Z,25.84
2022-08-25T00:19:52.728Z,25.82
2022-08-25T00:20:55.513Z,25.74
2022-08-25T00:21:58.292Z,25.71
2022-08-25T00:23:01.097Z,25.75
2022-08-25T00:24:03.861Z,25.73
2022-08-25T00:25:06.639Z,25.74
2022-08-25T00:26:09.409Z,25.66
2022-08-25T00:27:11.333Z,25.61
2022-08-25T00:28:14.380Z,25.51
2022-08-25T00:29:17.313Z,25.41
2022-08-25T00:30:20.133Z,25.35
2022-08-25T00:31:22.977Z,25.33
2022-08-25T00:32:23.019Z,25.21
2022-08-25T00:33:25.792Z,25.15
2022-08-25T00:34:28.577Z,25.16
2022-08-25T00:35:31.365Z,25.16
2022-08-25T00:36:34.472Z,25.16
2022-08-25T00:37:37.262Z,25.15
2022-08-25T00:38:40.126Z,25.16
2022-08-25T00:39:43.126Z,25.17
2022-08-25T00:40:45.952Z,25.18
2022-08-25T00:41:48.702Z,25.2
2022-08-25T00:42:51.464Z,25.18
2022-08-25T00:43:54.251Z,25.14
2022-08-25T00:44:57.751Z,25.13
2022-08-25T00:45:57.185Z,25.13
2022-08-25T00:47:00.268Z,25.06
2022-08-25T00:48:03.168Z,25.04
2022-08-25T00:49:03.556Z,25.05
2022-08-25T00:50:06.363Z,25.02
2022-08-25T00:51:08.088Z,25
2022-08-25T00:52:10.860Z,24.94
2022-08-25T00:53:13.650Z,24.9
2022-08-25T00:54:16.414Z,24.88
2022-08-25T00:55:19.263Z,24.84
2022-08-25T00:56:22.062Z,24.79
2022-08-25T00:57:28.980Z,24.77
2022-08-25T00:58:27.478Z,24.74
2022-08-25T00:59:30.272Z,24.73
2022-08-25T01:00:33.045Z,24.72
2022-08-25T01:01:35.959Z,24.72
2022-08-25T01:02:39.242Z,24.7
2022-08-25T01:03:42.348Z,24.69
2022-08-25T01:04:48.782Z,24.7
2022-08-25T01:05:48.600Z,24.7
2022-08-25T01:06:51.791Z,24.68
2022-08-25T01:07:55.546Z,24.6
2022-08-25T01:08:55.717Z,24.51
2022-08-25T01:09:58.495Z,24.5
2022-08-25T01:11:01.282Z,24.48
2022-08-25T01:12:04.069Z,24.45
2022-08-25T01:13:06.884Z,24.39
2022-08-25T01:14:09.286Z,24.38
2022-08-25T01:15:12.056Z,24.34
2022-08-25T01:16:14.881Z,24.38
2022-08-25T01:17:17.969Z,24.36
2022-08-25T01:18:20.751Z,24.37
2022-08-25T01:19:23.550Z,24.36
2022-08-25T01:20:27.879Z,24.34
2022-08-25T01:21:29.783Z,24.37
2022-08-25T01:22:32.539Z,24.36
2022-08-25T01:23:35.303Z,24.36
2022-08-25T01:24:38.084Z,24.4
2022-08-25T01:25:40.847Z,24.5
2022-08-25T01:26:43.619Z,24.57
2022-08-25T01:27:46.391Z,24.69
2022-08-25T01:28:49.474Z,24.8
2022-08-25T01:29:52.243Z,24.83
2022-08-25T01:30:55.136Z,24.95
2022-08-25T01:31:55.735Z,24.98
2022-08-25T01:32:58.515Z,24.98
2022-08-25T01:34:01.279Z,25.04
2022-08-25T01:35:04.058Z,25.09
2022-08-25T01:36:06.822Z,25.15
2022-08-25T01:37:09.612Z,25.24
2022-08-25T01:38:10.548Z,25.3
2022-08-25T01:39:13.300Z,25.36
2022-08-25T01:40:16.134Z,25.37
2022-08-25T01:41:16.225Z,25.34
2022-08-25T01:42:18.979Z,25.21
2022-08-25T01:43:21.744Z,25.04
2022-08-25T01:44:24.514Z,24.92
2022-08-25T01:45:27.273Z,25.04
2022-08-25T01:46:28.517Z,25.15
2022-08-25T01:47:28.846Z,25.17
2022-08-25T01:48:31.608Z,25.23
2022-08-25T01:49:34.356Z,25.29
2022-08-25T01:50:37.128Z,25.31
2022-08-25T01:51:39.895Z,25.42
2022-08-25T01:52:42.695Z,25.46
2022-08-25T01:53:45.491Z,25.45
2022-08-25T01:54:48.268Z,25.48
2022-08-25T01:55:51.051Z,25.45
2022-08-25T01:56:53.703Z,25.57
2022-08-25T01:57:56.523Z,25.62
2022-08-25T01:58:59.291Z,25.64
2022-08-25T02:00:02.065Z,25.68
2022-08-25T02:01:04.852Z,25.66
2022-08-25T02:02:05.024Z,25.64
2022-08-25T02:03:10.673Z,25.59
2022-08-25T02:04:08.888Z,25.63
2022-08-25T02:05:08.925Z,25.65
2022-08-25T02:06:11.698Z,25.59
2022-08-25T02:07:14.643Z,25.7
2022-08-25T02:08:17.459Z,25.72
2022-08-25T02:09:20.249Z,25.71
2022-08-25T02:10:23.268Z,25.75
2022-08-25T02:11:26.125Z,25.69
2022-08-25T02:12:28.932Z,25.62
2022-08-25T02:13:32.550Z,25.55
2022-08-25T02:14:32.000Z,25.51
2022-08-25T02:15:34.797Z,25.39
2022-08-25T02:16:37.639Z,25.2
2022-08-25T02:17:40.823Z,25.07
2022-08-25T02:18:43.603Z,24.95
2022-08-25T02:19:46.382Z,24.86
2022-08-25T02:20:49.238Z,24.73
2022-08-25T02:21:52.010Z,24.7
2022-08-25T02:22:56.670Z,24.66
2022-08-25T02:23:56.551Z,24.55
2022-08-25T02:24:59.309Z,24.45
2022-08-25T02:26:02.112Z,24.37
2022-08-25T02:27:04.911Z,24.34
2022-08-25T02:28:07.718Z,24.28
2022-08-25T02:29:10.502Z,24.25
2022-08-25T02:30:13.286Z,24.22
2022-08-25T02:31:16.109Z,24.22
2022-08-25T02:32:19.235Z,24.24
2022-08-25T02:33:21.997Z,24.25
2022-08-25T02:34:24.759Z,24.24
2022-08-25T02:35:27.531Z,24.23
2022-08-25T02:36:30.787Z,24.25
2022-08-25T02:37:33.548Z,24.33
2022-08-25T02:38:36.344Z,24.43
2022-08-25T02:39:39.109Z,24.5
2022-08-25T02:40:41.875Z,24.61
2022-08-25T02:41:44.666Z,24.6
2022-08-25T02:42:47.460Z,24.51
2022-08-25T02:43:50.269Z,24.44
2022-08-25T02:44:53.067Z,24.37
2022-08-25T02:45:55.892Z,24.36
2022-08-25T02:46:59.059Z,24.33
2022-08-25T02:48:01.905Z,24.26
2022-08-25T02:49:05.206Z,24.25
2022-08-25T02:50:08.005Z,24.24
2022-08-25T02:51:10.776Z,24.21
2022-08-25T02:52:13.544Z,24.19
2022-08-25T02:53:16.317Z,24.17
2022-08-25T02:54:19.091Z,24.18
2022-08-25T02:55:21.860Z,24.23
2022-08-25T02:56:24.653Z,24.2
2022-08-25T02:57:27.542Z,24.18
2022-08-25T02:58:30.328Z,24.17
2022-08-25T02:59:33.095Z,24.07
2022-08-25T03:00:35.849Z,23.95
2022-08-25T03:01:38.733Z,23.91
2022-08-25T03:02:41.568Z,23.98
2022-08-25T03:03:44.579Z,24.06
2022-08-25T03:04:47.902Z,24.13
2022-08-25T03:05:51.007Z,24.08
2022-08-25T03:06:53.786Z,24.09
2022-08-25T03:07:56.580Z,23.86
2022-08-25T03:08:57.231Z,23.66
2022-08-25T03:10:00.050Z,23.63
2022-08-25T03:11:02.839Z,23.63
2022-08-25T03:12:05.617Z,23.49
2022-08-25T03:13:08.407Z,23.34
2022-08-25T03:14:08.732Z,23.36
2022-08-25T03:15:12.323Z,23.4
2022-08-25T03:16:12.871Z,23.4
2022-08-25T03:17:13.008Z,23.39
2022-08-25T03:18:15.781Z,23.4
2022-08-25T03:19:16.579Z,23.39
2022-08-25T03:20:19.361Z,23.39
2022-08-25T03:21:22.130Z,23.43
2022-08-25T03:22:24.912Z,23.49
2022-08-25T03:23:27.673Z,23.51
2022-08-25T03:24:30.487Z,23.52
2022-08-25T03:25:33.266Z,23.54
2022-08-25T03:26:36.018Z,23.53
2022-08-25T03:27:38.799Z,23.47
2022-08-25T03:28:41.608Z,23.45
2022-08-25T03:29:44.382Z,23.44
2022-08-25T03:30:47.190Z,23.44
2022-08-25T03:31:48.679Z,23.46
2022-08-25T03:32:51.786Z,23.46
2022-08-25T03:33:54.561Z,23.45
2022-08-25T03:34:57.312Z,23.46
2022-08-25T03:36:00.080Z,23.43
2022-08-25T03:37:02.837Z,23.44
2022-08-25T03:38:05.713Z,23.46
2022-08-25T03:39:06.802Z,23.55
2022-08-25T03:40:09.632Z,23.59
2022-08-25T03:41:09.692Z,23.69
2022-08-25T03:42:12.467Z,23.76
2022-08-25T03:43:15.238Z,23.79
2022-08-25T03:44:18.046Z,23.77
2022-08-25T03:45:20.815Z,23.76
2022-08-25T03:46:23.605Z,23.77
2022-08-25T03:47:26.384Z,23.78
2022-08-25T03:48:29.165Z,23.78
2022-08-25T03:49:31.946Z,23.79
2022-08-25T03:50:34.129Z,23.78
2022-08-25T03:51:36.886Z,23.78
2022-08-25T03:52:42.539Z,23.84
2022-08-25T03:53:39.744Z,23.84
2022-08-25T03:54:42.496Z,23.88
2022-08-25T03:55:45.279Z,23.95
2022-08-25T03:56:48.034Z,24.03
2022-08-25T03:57:50.805Z,24.08
2022-08-25T03:58:53.577Z,24.16
2022-08-25T03:59:56.348Z,24.2
2022-08-25T04:00:59.173Z,24.21
2022-08-25T04:02:02.395Z,24.19
2022-08-25T04:03:05.710Z,24.16
2022-08-25T04:04:08.488Z,24.13
2022-08-25T04:05:11.269Z,24.09
2022-08-25T04:06:14.234Z,24
2022-08-25T04:07:14.473Z,23.95
2022-08-25T04:08:17.236Z,23.92
2022-08-25T04:09:18.972Z,23.85
2022-08-25T04:10:21.753Z,23.85
2022-08-25T04:11:24.624Z,23.77
2022-08-25T04:12:27.407Z,23.76
2022-08-25T04:13:30.186Z,23.77
2022-08-25T04:14:32.977Z,23.58
2022-08-25T04:15:35.751Z,23.43
2022-08-25T04:16:38.605Z,23.32
2022-08-25T04:17:41.646Z,23.26
2022-08-25T04:18:44.461Z,23.24
2022-08-25T04:19:47.226Z,23.19
2022-08-25T04:20:50.019Z,23.2
2022-08-25T04:21:53.497Z,23.2
2022-08-25T04:22:53.185Z,23.19
2022-08-25T04:23:55.996Z,23.19
2022-08-25T04:24:58.840Z,23.19
2022-08-25T04:26:01.702Z,23.2
2022-08-25T04:27:04.486Z,23.22
2022-08-25T04:28:07.390Z,23.26
2022-08-25T04:29:10.519Z,23.32
2022-08-25T04:30:13.303Z,23.34
2022-08-25T04:31:16.166Z,23.34
2022-08-25T04:32:19.235Z,23.34
2022-08-25T04:33:21.999Z,23.33
2022-08-25T04:34:28.945Z,23.32
2022-08-25T04:35:29.911Z,23.28
2022-08-25T05:27:52.437Z,25.02
2022-08-25T05:28:55.263Z,24.76
2022-08-25T05:29:58.109Z,24.52
2022-08-25T05:31:00.944Z,24.36
2022-08-25T05:32:03.789Z,24.08
2022-08-25T05:33:07.008Z,23.96
2022-08-25T05:34:09.826Z,23.71
2022-08-25T05:35:12.649Z,23.49
2022-08-25T05:36:15.471Z,23.41
2022-08-25T05:37:18.307Z,23.33
2022-08-25T05:38:21.138Z,23.22
2022-08-25T05:39:23.955Z,23.15
2022-08-25T05:40:26.438Z,23
2022-08-25T05:41:26.466Z,22.96
2022-08-25T06:22:33.844Z,24.11
2022-08-25T06:23:36.683Z,24.09
2022-08-25T06:24:39.500Z,24.15
2022-08-25T06:25:42.313Z,24.2
2022-08-25T06:26:45.153Z,24.2
2022-08-25T06:27:47.942Z,24.17
2022-08-25T06:28:50.754Z,24.14
2022-08-25T06:29:53.607Z,24.11
2022-08-25T06:30:56.666Z,24.1
2022-08-25T06:31:59.515Z,24.06
2022-08-25T06:33:02.826Z,24.03
2022-08-25T06:34:05.634Z,24.01
2022-08-25T06:35:08.464Z,24.03
2022-08-25T06:36:11.320Z,24.04
2022-08-25T06:37:25.119Z,24.04
2022-08-25T06:38:42.386Z,24.07
2022-08-25T06:48:24.591Z,24.12
2022-08-25T06:48:25.159Z,24.29
2022-08-25T06:49:34.227Z,24.37
2022-08-25T06:50:28.968Z,24.39
2022-08-25T07:09:39.127Z,25.44
2022-08-25T07:10:48.277Z,25.59
2022-08-25T07:11:40.954Z,25.51
2022-08-25T07:12:43.862Z,25.51
2022-08-25T07:13:45.806Z,25.6
2022-08-25T07:14:58.222Z,25.59
2022-08-25T07:15:49.238Z,25.52
2022-08-25T07:16:50.317Z,25.47
2022-08-25T07:18:22.943Z,25.49
2022-08-25T07:21:57.293Z,25.42
2022-08-25T07:21:58.088Z,25.43
2022-08-25T07:23:01.283Z,25.44
2022-08-25T07:24:01.174Z,25.52
2022-08-25T07:25:03.302Z,25.64
2022-08-25T07:26:15.651Z,25.75
2022-08-25T07:27:06.535Z,25.87
2022-08-25T07:28:09.374Z,25.96
2022-08-25T07:29:09.846Z,25.93
2022-08-25T07:30:12.655Z,26.08
2022-08-25T07:31:15.675Z,26.15
2022-08-25T07:32:18.851Z,26.19
2022-08-25T07:33:20.492Z,26.22
2022-08-25T07:34:21.127Z,26.28
2022-08-25T07:35:24.283Z,26.26
2022-08-25T07:36:26.809Z,26.26
2022-08-25T07:37:47.362Z,26.34
2022-08-25T07:52:27.714Z,27.29
2022-08-25T07:53:30.495Z,27.47
2022-08-25T07:54:33.701Z,27.66
2022-08-25T07:55:33.583Z,27.43
2022-08-25T07:56:36.403Z,27.38
2022-08-25T07:57:39.437Z,27.14
2022-08-25T07:58:42.236Z,27.47
2022-08-25T07:59:43.836Z,27.64
2022-08-25T08:00:47.067Z,27.67
2022-08-25T08:01:50.073Z,27.79
2022-08-25T08:02:53.353Z,27.27
2022-08-25T08:03:53.891Z,26.97
2022-08-25T08:04:54.149Z,27.27
2022-08-25T08:05:57.000Z,27.28
2022-08-25T08:06:59.878Z,27.38
2022-08-25T08:08:01.639Z,27.64
2022-08-25T08:09:03.245Z,27.69
2022-08-25T08:10:33.094Z,27.87
2022-08-25T08:11:12.179Z,27.85
2022-08-25T08:12:11.649Z,27.79
2022-08-25T08:13:17.834Z,27.88
2022-08-25T08:14:15.610Z,27.95
2022-08-25T08:15:16.253Z,28.13
2022-08-25T08:16:19.106Z,28.3
2022-08-25T08:17:19.516Z,28.21
2022-08-25T08:18:22.514Z,28.34
2022-08-25T08:19:25.309Z,28.36
2022-08-25T08:20:25.366Z,28.42
2022-08-25T08:21:28.206Z,28.18
2022-08-25T08:22:31.004Z,28.39
2022-08-25T08:23:33.940Z,28.62
2022-08-25T08:24:44.492Z,28.14
2022-08-25T08:25:38.842Z,28.35
2022-08-25T08:26:57.514Z,27.74
2022-08-25T08:27:42.006Z,28.12
2022-08-25T08:28:43.076Z,28.22
2022-08-25T08:29:45.914Z,28.21
2022-08-25T08:30:53.249Z,28.46
2022-08-25T08:31:51.881Z,28.39
2022-08-25T08:33:12.375Z,28.55
2022-08-25T08:33:51.999Z,28.83
2022-08-25T08:34:54.929Z,29.1
2022-08-25T08:35:54.935Z,29.21
2022-08-25T08:36:54.942Z,29.45
2022-08-25T08:37:57.768Z,29.41
2022-08-25T08:39:00.568Z,29.46
2022-08-25T08:40:00.835Z,29.38
2022-08-25T08:41:03.564Z,29.62
2022-08-25T08:42:11.754Z,29.56
2022-08-25T08:43:14.630Z,29.68
2022-08-25T08:44:11.595Z,29.8
2022-08-25T08:45:12.299Z,29.93
2022-08-25T08:46:15.123Z,30.04
2022-08-25T08:47:18.237Z,30.19
2022-08-25T08:48:21.011Z,30.15
2022-08-25T08:49:26.721Z,30.13
2022-08-25T08:50:27.810Z,29.87
2022-08-25T08:51:26.392Z,29.55
2022-08-25T08:52:29.566Z,29.63
2022-08-25T08:53:34.167Z,29.42
2022-08-25T08:54:34.141Z,29.41
2022-08-25T08:55:35.835Z,29.53
2022-08-25T08:56:36.568Z,29.48
2022-08-25T08:57:39.418Z,29.67
2022-08-25T08:58:42.806Z,29.66
2022-08-25T08:59:43.839Z,29.78
2022-08-25T09:00:52.103Z,29.81
2022-08-25T09:01:52.649Z,29.96
2022-08-25T09:02:51.815Z,30.06
2022-08-25T09:03:55.081Z,30.24
2022-08-25T09:04:54.827Z,30.24
2022-08-25T09:05:57.657Z,30.2
2022-08-25T09:07:00.442Z,30.47
2022-08-25T09:08:00.581Z,30.6
2022-08-25T09:09:03.407Z,30.8
2022-08-25T09:10:06.637Z,30.82
2022-08-25T09:11:10.240Z,31.04
2022-08-25T09:12:13.327Z,31.21
2022-08-25T09:13:15.390Z,31.34
2022-08-25T09:14:15.055Z,31.52
2022-08-25T09:15:17.887Z,31.53
2022-08-25T09:16:20.688Z,31.51
2022-08-25T09:17:20.846Z,31.51
2022-08-25T09:18:23.630Z,31.29
2022-08-25T09:19:26.417Z,31.25
2022-08-25T09:20:29.243Z,31.19
2022-08-25T09:21:32.537Z,31.33
2022-08-25T09:22:36.623Z,30.78
2022-08-25T09:23:36.242Z,30.81
2022-08-25T09:24:39.090Z,30.6
2022-08-25T09:25:52.307Z,30.83
2022-08-25T09:26:43.327Z,30.54
2022-08-25T09:27:43.877Z,30.55
2022-08-25T09:28:46.763Z,30.47
2022-08-25T09:29:47.314Z,30.47
2022-08-25T09:30:50.166Z,30.45
2022-08-25T09:31:53.266Z,30.56
2022-08-25T09:32:56.042Z,30.57
2022-08-25T09:33:56.174Z,30.71
2022-08-25T09:34:58.993Z,30.96
2022-08-25T09:36:01.791Z,31.04
2022-08-25T09:37:05.138Z,30.98
2022-08-25T09:38:08.012Z,30.99
2022-08-25T09:39:10.823Z,31.26
2022-08-25T09:40:13.732Z,31.29
2022-08-25T09:41:17.118Z,30.68
2022-08-25T09:42:19.885Z,30.57
2022-08-25T09:43:19.884Z,30.89
2022-08-25T09:44:22.687Z,30.87
2022-08-25T09:45:25.501Z,31.06
2022-08-25T09:46:28.337Z,31.14
2022-08-25T09:47:28.728Z,31.28
2022-08-25T09:48:31.559Z,31.37
2022-08-25T09:49:33.940Z,31.56
2022-08-25T09:50:37.349Z,31.63
2022-08-25T09:51:38.387Z,31.56
2022-08-25T09:52:41.202Z,31.57
2022-08-25T09:53:41.869Z,31.62
2022-08-25T09:54:46.835Z,31.73
2022-08-25T09:55:47.114Z,31.66
2022-08-25T09:56:49.905Z,31.84
2022-08-25T09:57:53.156Z,31.7
2022-08-25T09:58:58.186Z,31.79
2022-08-25T09:59:59.229Z,31.85
2022-08-25T10:01:02.122Z,31.68
2022-08-25T10:02:04.960Z,31.62
2022-08-25T10:03:05.812Z,31.53
2022-08-25T10:04:10.839Z,31.57
2022-08-25T10:05:10.230Z,31.55
2022-08-25T10:06:13.061Z,31.7
2022-08-25T10:07:13.203Z,31.64
2022-08-25T10:08:16.657Z,31.77
2022-08-25T10:09:17.287Z,31.82
2022-08-25T10:10:20.708Z,31.87
2022-08-25T10:11:23.662Z,32.03
2022-08-25T10:12:27.826Z,31.97
2022-08-25T10:13:27.548Z,31.98
2022-08-25T10:14:30.636Z,32.11
2022-08-25T10:15:33.464Z,32.08
2022-08-25T10:16:36.806Z,32.12
2022-08-25T10:17:36.618Z,32.28
2022-08-25T10:18:38.343Z,32.38
2022-08-25T10:19:41.175Z,32.48
2022-08-25T10:20:44.684Z,32.51
2022-08-25T10:21:45.528Z,32.69
2022-08-25T10:22:46.272Z,32.81
2022-08-25T10:23:47.272Z,32.75
2022-08-25T10:24:50.436Z,32.75
2022-08-25T10:25:56.768Z,32.88
2022-08-25T10:26:54.288Z,32.76
2022-08-25T10:27:57.086Z,32.9
2022-08-25T10:29:00.029Z,32.81
2022-08-25T10:30:03.043Z,32.69
2022-08-25T10:31:02.973Z,32.74
2022-08-25T10:32:10.284Z,32.63
2022-08-25T10:33:08.584Z,32.53
2022-08-25T10:34:08.672Z,32.34
2022-08-25T10:35:12.045Z,32.47
2022-08-25T10:36:15.134Z,32.55
2022-08-25T10:37:17.616Z,32.64
2022-08-25T10:38:21.590Z,32.71
2022-08-25T10:39:31.705Z,32.88
2022-08-25T10:40:26.212Z,32.92
2022-08-25T10:41:26.225Z,32.81
2022-08-25T10:42:29.184Z,32.7
2022-08-25T10:43:32.089Z,32.76
2022-08-25T10:44:34.869Z,32.84
2022-08-25T10:45:37.763Z,32.9
2022-08-25T10:46:40.638Z,32.63
2022-08-25T10:47:42.768Z,32.72
2022-08-25T10:48:45.727Z,32.71
2022-08-25T10:49:50.018Z,32.73
2022-08-25T10:50:49.550Z,32.7
2022-08-25T10:51:50.910Z,32.75
2022-08-25T10:52:50.877Z,32.91
2022-08-25T10:53:53.785Z,32.78
2022-08-25T10:54:56.001Z,32.79
2022-08-25T10:55:59.096Z,32.85
2022-08-25T10:57:02.058Z,32.93
2022-08-25T10:58:04.994Z,32.74
2022-08-25T10:59:06.695Z,32.85
2022-08-25T11:00:08.497Z,32.78
2022-08-25T11:01:11.344Z,32.77
2022-08-25T11:02:14.602Z,32.85
2022-08-25T11:03:17.427Z,32.95
2022-08-25T11:04:20.711Z,32.94
2022-08-25T11:05:23.358Z,33.03
2022-08-25T11:06:24.572Z,32.99
2022-08-25T11:07:27.351Z,33.08
2022-08-25T11:08:30.189Z,33.19
2022-08-25T11:09:32.973Z,33.06
2022-08-25T11:10:34.520Z,33.18
2022-08-25T11:11:37.322Z,32.88
2022-08-25T11:12:40.471Z,32.94
2022-08-25T11:13:42.498Z,32.9
2022-08-25T11:14:42.641Z,33.01
2022-08-25T11:16:00.103Z,32.85
2022-08-25T11:16:48.498Z,32.88
2022-08-25T11:17:50.215Z,32.82
2022-08-25T11:18:49.932Z,32.21
2022-08-25T11:19:50.209Z,32.45
2022-08-25T11:20:53.108Z,32.52
2022-08-25T11:21:55.915Z,32.46
2022-08-25T11:22:59.361Z,32.35
2022-08-25T11:24:01.012Z,32.1
2022-08-25T11:25:02.880Z,32.19
2022-08-25T11:26:03.591Z,32.26
2022-08-25T11:27:06.432Z,32.32
2022-08-25T11:28:09.219Z,32.15
2022-08-25T11:29:11.450Z,32.29
2022-08-25T11:30:11.737Z,32.4
2022-08-25T11:31:12.792Z,32.38
2022-08-25T11:32:12.896Z,32.42
2022-08-25T11:33:15.677Z,32.46
2022-08-25T11:34:19.389Z,32.51
2022-08-25T11:35:19.108Z,32.52
2022-08-25T11:36:21.899Z,32.46
2022-08-25T11:37:22.212Z,32.52
2022-08-25T11:38:25.262Z,32.35
2022-08-25T11:39:32.525Z,32.4
2022-08-25T11:40:30.662Z,32.49
2022-08-25T11:41:33.914Z,32.59
2022-08-25T11:42:36.734Z,32.58
2022-08-25T11:43:40.486Z,32.65
2022-08-25T11:44:40.384Z,32.65
2022-08-25T11:45:40.766Z,32.76
2022-08-25T11:46:42.749Z,32.9
2022-08-25T11:47:45.541Z,32.98
2022-08-25T11:48:48.841Z,32.83
2022-08-25T11:49:51.616Z,32.82
2022-08-25T11:50:54.431Z,32.66
2022-08-25T11:52:02.743Z,32.68
2022-08-25T11:52:59.623Z,32.65
2022-08-25T11:54:00.097Z,32.59
2022-08-25T11:55:02.882Z,32.63
2022-08-25T11:56:04.817Z,32.62
2022-08-25T11:57:07.608Z,32.61
2022-08-25T11:58:10.425Z,32.53
2022-08-25T11:59:13.731Z,32.56
2022-08-25T12:00:15.430Z,32.59
2022-08-25T12:01:18.785Z,32.03
2022-08-25T12:02:19.706Z,32.18
2022-08-25T12:03:22.661Z,32.26
2022-08-25T12:04:25.576Z,32.38
2022-08-25T12:05:26.937Z,32.47
2022-08-25T12:06:29.984Z,32.46
2022-08-25T12:07:32.792Z,32.4
2022-08-25T12:08:35.567Z,32.28
2022-08-25T12:09:38.355Z,32.44
2022-08-25T12:10:41.117Z,32.5
2022-08-25T12:11:43.868Z,32.53
2022-08-25T12:12:46.696Z,32.51
2022-08-25T12:13:49.495Z,32.39
2022-08-25T12:14:50.223Z,32.51
2022-08-25T12:15:52.989Z,32.52
2022-08-25T12:16:56.092Z,32.39
2022-08-25T12:17:56.170Z,32.19
2022-08-25T12:18:58.965Z,32.26
2022-08-25T12:19:58.959Z,32.41
2022-08-25T12:21:01.741Z,32.5
2022-08-25T12:22:03.326Z,32.41
2022-08-25T12:23:03.623Z,32.48
2022-08-25T12:24:06.518Z,32.34
2022-08-25T12:25:09.399Z,32.38
2022-08-25T12:26:12.180Z,32.48
2022-08-25T12:27:14.984Z,32.47
2022-08-25T12:28:17.765Z,32.5
2022-08-25T12:29:21.515Z,32.26
2022-08-25T12:30:21.764Z,32.22
2022-08-25T12:31:24.629Z,32.32
2022-08-25T12:32:27.556Z,32.07
2022-08-25T12:33:30.558Z,32.3
2022-08-25T12:34:33.355Z,32.37
2022-08-25T12:35:36.173Z,32.47
2022-08-25T12:36:36.863Z,32.45
2022-08-25T12:37:39.658Z,32.44
2022-08-25T12:38:44.163Z,32.57
2022-08-25T12:39:44.775Z,32.64
2022-08-25T12:40:47.577Z,32.42
2022-08-25T12:41:50.392Z,32.29
2022-08-25T12:42:51.744Z,32.46
2022-08-25T12:43:54.589Z,32.52
2022-08-25T12:44:57.472Z,32.61
2022-08-25T12:46:00.702Z,32.62
2022-08-25T12:47:02.852Z,32.63
2022-08-25T12:48:06.221Z,32.68
2022-08-25T12:49:09.046Z,32.76
2022-08-25T12:50:11.836Z,32.82
2022-08-25T12:51:14.616Z,32.9
2022-08-25T12:52:17.406Z,33.03
2022-08-25T12:53:20.205Z,32.98
2022-08-25T12:54:23.637Z,32.97
2022-08-25T12:55:26.461Z,32.75
2022-08-25T12:56:29.235Z,32.91
2022-08-25T12:57:29.460Z,32.91
2022-08-25T12:58:43.690Z,32.93
2022-08-25T12:59:32.795Z,32.78
2022-08-25T13:00:35.582Z,32.77
2022-08-25T13:01:38.633Z,32.88
2022-08-25T13:02:38.679Z,32.79
2022-08-25T13:04:41.595Z,32.9
2022-08-25T13:05:42.890Z,32.82
2022-08-25T13:06:45.734Z,32.96
2022-08-25T13:07:48.501Z,33.03
2022-08-25T13:08:51.683Z,33.05
2022-08-25T13:09:54.579Z,33.01
2022-08-25T13:10:57.366Z,33.01
2022-08-25T13:12:00.168Z,33.13
2022-08-25T13:13:02.081Z,33.07
2022-08-25T13:14:03.690Z,33.06
2022-08-25T13:15:06.480Z,32.94
2022-08-25T13:16:09.539Z,32.95
2022-08-25T13:17:09.914Z,33.06
2022-08-25T13:18:13.227Z,33.04
2022-08-25T13:19:16.389Z,32.92
2022-08-25T13:20:17.961Z,32.99
2022-08-25T13:21:19.049Z,32.93
2022-08-25T13:22:19.545Z,32.95
2022-08-25T13:23:22.331Z,32.83
2022-08-25T13:24:25.491Z,32.77
2022-08-25T14:29:35.460Z,33.94
2022-08-25T14:30:37.296Z,34
2022-08-25T14:31:40.198Z,34.1
2022-08-25T14:32:43.532Z,34.12
2022-08-25T14:33:50.019Z,34.09
2022-08-25T14:34:49.608Z,34.04
2022-08-25T14:35:52.514Z,33.94
2022-08-25T14:36:54.361Z,33.82
2022-08-25T14:37:57.235Z,33.81
2022-08-25T14:39:00.077Z,33.75
2022-08-25T14:40:01.173Z,33.73
2022-08-25T14:41:01.294Z,33.72
2022-08-25T14:42:01.751Z,33.69
2022-08-25T14:43:04.738Z,33.58
2022-08-25T14:44:06.820Z,33.53
2022-08-25T14:45:09.851Z,33.51
2022-08-25T14:46:14.417Z,33.5
2022-08-25T14:47:15.320Z,33.48
2022-08-25T14:48:18.145Z,33.44
2022-08-25T14:49:24.772Z,33.4
2022-08-25T14:50:21.124Z,33.34
2022-08-25T14:51:23.989Z,33.23
2022-08-25T14:52:24.230Z,33.23
2022-08-25T14:53:27.160Z,33.19
2022-08-25T14:54:28.332Z,33.07
2022-08-25T14:55:31.907Z,33.03
2022-08-25T14:56:31.809Z,33.02
2022-08-25T14:57:34.614Z,32.97
2022-08-25T14:58:47.293Z,32.95
2022-08-25T14:59:40.693Z,32.9
2022-08-25T15:00:42.815Z,32.84
2022-08-25T15:01:43.244Z,32.78
2022-08-25T15:02:46.645Z,32.75
2022-08-25T15:03:48.667Z,32.7
2022-08-25T15:04:51.939Z,32.64
2022-08-25T15:05:51.647Z,32.7
2022-08-25T15:06:54.749Z,32.64
2022-08-25T15:07:57.596Z,32.62
2022-08-25T15:08:58.110Z,32.63
2022-08-25T15:10:01.260Z,32.65
2022-08-25T15:11:08.776Z,32.68
2022-08-25T15:12:05.616Z,32.69
2022-08-25T15:13:08.098Z,32.67
2022-08-25T15:14:08.980Z,32.7
2022-08-25T15:15:11.583Z,32.65
2022-08-25T15:16:12.709Z,32.66
2022-08-25T15:17:15.820Z,32.67
2022-08-25T15:18:18.654Z,32.77
2022-08-25T15:19:19.849Z,32.75
2022-08-25T15:20:22.718Z,32.77
2022-08-25T15:21:25.792Z,32.75
2022-08-25T15:22:28.611Z,32.72
2022-08-25T15:23:30.174Z,32.74
2022-08-25T15:24:37.371Z,32.73
2022-08-25T15:25:35.306Z,32.79
2022-08-25T15:26:38.206Z,32.76
2022-08-25T15:27:39.512Z,32.78
2022-08-25T15:28:42.347Z,32.84
2022-08-25T15:29:43.826Z,32.87
2022-08-25T15:30:45.126Z,32.93
2022-08-25T15:31:45.567Z,32.95
2022-08-25T15:32:48.527Z,32.92
2022-08-25T15:33:48.383Z,32.9
2022-08-25T15:34:50.129Z,32.82
2022-08-25T15:35:52.980Z,32.86
2022-08-25T15:36:53.512Z,32.84
2022-08-25T15:37:56.422Z,32.84
2022-08-25T15:38:59.325Z,32.85
2022-08-25T15:39:59.398Z,32.82
2022-08-25T15:41:02.741Z,32.83
2022-08-25T15:42:06.030Z,32.87
2022-08-25T15:43:08.892Z,32.87
2022-08-25T15:44:09.003Z,32.91
2022-08-25T15:45:09.551Z,32.9
2022-08-25T15:46:12.367Z,32.95
2022-08-25T15:47:15.229Z,32.97
2022-08-25T15:48:16.403Z,32.99
2022-08-25T15:49:20.578Z,33
2022-08-25T15:50:21.977Z,33
2022-08-25T15:51:22.285Z,32.98
2022-08-25T15:52:28.311Z,33
2022-08-25T15:53:27.193Z,33.03
2022-08-25T15:54:30.339Z,33.01
2022-08-25T15:55:33.396Z,32.98
2022-08-25T15:56:36.257Z,33
2022-08-25T15:57:36.633Z,33
2022-08-25T15:58:38.000Z,33
2022-08-25T15:59:40.293Z,32.99
2022-08-25T16:00:41.061Z,32.99
2022-08-25T16:01:42.250Z,33
2022-08-25T16:02:43.167Z,32.94
2022-08-25T16:03:46.039Z,32.93
2022-08-25T16:04:48.865Z,32.96
2022-08-25T16:05:51.659Z,32.94
2022-08-25T16:06:55.585Z,32.95
2022-08-25T16:07:55.176Z,32.95
2022-08-25T16:08:58.100Z,32.96
2022-08-25T16:10:01.387Z,32.94
2022-08-25T16:11:03.057Z,32.9
2022-08-25T16:12:06.855Z,32.9
2022-08-25T16:13:05.939Z,32.87
2022-08-25T16:14:08.168Z,32.88
2022-08-25T16:15:12.164Z,32.89
2022-08-25T16:16:11.906Z,32.85
2022-08-25T16:17:15.171Z,32.81
2022-08-25T16:18:15.440Z,32.81
2022-08-25T16:19:16.300Z,32.77
2022-08-25T16:20:19.158Z,32.75
2022-08-25T16:21:21.975Z,32.77
2022-08-25T16:22:22.704Z,32.76
2022-08-25T16:23:25.513Z,32.68
2022-08-25T16:24:28.370Z,32.73
2022-08-25T16:25:30.021Z,32.74
2022-08-25T16:26:32.819Z,32.81
2022-08-25T16:27:37.718Z,32.83
2022-08-25T16:28:35.761Z,32.94
2022-08-25T16:29:36.780Z,32.93
2022-08-25T16:30:39.579Z,33.02
2022-08-25T16:31:43.163Z,33.1
2022-08-25T16:32:43.174Z,33.17
2022-08-25T16:33:43.375Z,33.21
2022-08-25T16:34:44.206Z,33.26
2022-08-25T16:35:43.964Z,33.3
2022-08-25T16:36:46.799Z,33.25
2022-08-25T16:37:49.597Z,33.3
2022-08-25T16:38:52.444Z,33.33
2022-08-25T16:39:55.355Z,33.35
2022-08-25T16:40:58.636Z,33.36
2022-08-25T16:41:59.904Z,33.44
2022-08-25T16:43:02.744Z,33.43
2022-08-25T16:44:02.810Z,33.46
2022-08-25T16:45:06.198Z,33.46